Time;durP1;ratioP1;P1;durP2;ratioP2;P2;SDS_P1;SDS_P2;PMS_P1;PMS_P2;Temp;Humidity;BMP_temperature;BMP_pressure;BME280_temperature;BME280_humidity;BME280_pressure;Samples;Min_cycle;Max_cycle;Signal;HPM_P1;HPM_P2
2022/10/26 00:00:05;;;;;;;956.85;892.55;;;;;;;11.36;74.93;101355.50;701422;28;22386;-63
2022/10/26 00:00:33;;;;;;;984.10;918.97;;;;;;;11.29;74.74;101341.00;696472;28;161363;-64
2022/10/26 00:01:03;;;;;;;964.13;899.70;;;;;;;11.35;75.08;101351.97;699319;28;70103;-63
2022/10/26 00:01:24;;;;;;;950.88;887.03;;;;;;;11.37;74.83;101343.69;697329;28;137788;-63
2022/10/26 00:01:47;;;;;;;980.33;915.42;;;;;;;11.35;74.91;101346.56;701361;28;23401;-63
2022/10/26 00:02:09;;;;;;;991.47;926.17;;;;;;;11.38;75.21;101349.94;699776;28;69440;-64
2022/10/26 00:02:30;;;;;;;982.35;917.25;;;;;;;11.37;75.37;101354.50;700627;28;45199;-63
2022/10/26 00:02:53;;;;;;;963.97;899.50;;;;;;;11.39;75.34;101355.19;701316;28;21557;-64
2022/10/26 00:03:14;;;;;;;974.78;910.03;;;;;;;11.40;75.24;101351.47;699726;28;69485;-63
2022/10/26 00:03:37;;;;;;;979.20;914.28;;;;;;;11.42;75.27;101352.16;700183;28;45310;-63
2022/10/26 00:03:58;;;;;;;987.38;922.13;;;;;;;11.42;75.56;101345.91;700437;28;45308;-63
2022/10/26 00:04:19;;;;;;;978.78;913.83;;;;;;;11.42;75.42;101354.00;700341;28;46312;-63
2022/10/26 00:04:40;;;;;;;977.67;912.80;;;;;;;11.44;75.07;101358.25;701222;28;23701;-63
2022/10/26 00:05:02;;;;;;;978.83;913.85;;;;;;;11.46;75.09;101350.81;701246;28;23450;-64
2022/10/26 00:05:24;;;;;;;976.10;911.25;;;;;;;11.46;75.34;101350.81;700336;28;44322;-64
2022/10/26 00:05:45;;;;;;;980.65;915.63;;;;;;;11.48;75.02;101353.34;700565;28;44367;-63
2022/10/26 00:06:08;;;;;;;985.53;920.30;;;;;;;11.48;74.89;101354.19;701141;28;22375;-63
2022/10/26 00:06:30;;;;;;;965.55;900.95;;;;;;;11.48;75.16;101356.88;699844;28;70287;-63
2022/10/26 00:06:52;;;;;;;977.65;912.83;;;;;;;11.48;74.69;101356.88;700466;28;45218;-64
2022/10/26 00:07:13;;;;;;;978.45;913.22;;;;;;;11.45;74.75;101354.50;700401;28;23429;-64
2022/10/26 00:07:34;;;;;;;976.35;911.30;;;;;;;11.48;74.56;101353.34;701202;28;22362;-63
2022/10/26 00:07:56;;;;;;;976.05;911.13;;;;;;;11.47;74.82;101363.31;700408;28;46317;-64
2022/10/26 00:08:18;;;;;;;974.58;909.75;;;;;;;11.46;74.58;101355.38;700050;28;44372;-63
2022/10/26 00:08:39;;;;;;;978.17;913.13;;;;;;;11.46;74.56;101350.81;699777;28;44375;-63
2022/10/26 00:09:01;;;;;;;984.67;919.47;;;;;;;11.45;74.83;101359.91;701260;28;21535;-63
2022/10/26 00:09:23;;;;;;;989.03;923.70;;;;;;;11.43;74.63;101361.97;701301;28;22619;-63
2022/10/26 00:09:44;;;;;;;982.42;917.45;;;;;;;11.44;74.96;101357.38;699715;28;69389;-64
2022/10/26 00:10:06;;;;;;;974.25;909.50;;;;;;;11.43;74.50;101356.56;701453;28;23523;-62
2022/10/26 00:10:27;;;;;;;944.50;880.72;;;;;;;11.43;74.57;101356.56;700417;28;47731;-63
2022/10/26 00:10:48;;;;;;;969.17;904.60;;;;;;;11.43;75.11;101353.84;701335;28;22408;-64
2022/10/26 00:11:11;;;;;;;956.30;892.17;;;;;;;11.43;75.26;101351.13;701375;28;22354;-64
2022/10/26 00:11:32;;;;;;;969.70;905.03;;;;;;;11.43;74.89;101361.97;700119;28;51074;-64
2022/10/26 00:11:53;;;;;;;984.65;919.45;;;;;;;11.44;75.02;101352.84;701277;28;23474;-63
2022/10/26 00:12:14;;;;;;;965.80;901.28;;;;;;;11.45;75.39;101357.22;701344;28;22427;-64
2022/10/26 00:12:35;;;;;;;955.42;891.17;;;;;;;11.46;75.09;101347.25;701227;28;22416;-64
2022/10/26 00:12:57;;;;;;;951.35;887.28;;;;;;;11.47;75.30;101354.34;701461;28;23508;-63
2022/10/26 00:13:18;;;;;;;974.17;909.35;;;;;;;11.47;75.57;101351.63;700519;28;45236;-63
2022/10/26 00:13:40;;;;;;;977.95;913.00;;;;;;;11.47;75.29;101352.50;700673;28;22407;-63
2022/10/26 00:14:01;;;;;;;968.47;903.92;;;;;;;11.48;75.69;101345.22;701426;28;21319;-63
2022/10/26 00:14:23;;;;;;;971.47;906.78;;;;;;;11.49;75.42;101355.03;701393;28;21545;-64
2022/10/26 00:14:44;;;;;;;963.78;899.30;;;;;;;11.48;75.30;101347.94;700142;28;57739;-64
2022/10/26 00:15:06;;;;;;;977.35;912.42;;;;;;;11.51;75.61;101359.25;701135;28;21533;-63
2022/10/26 00:15:28;;;;;;;987.50;922.15;;;;;;;11.52;75.25;101357.41;700615;28;45229;-64
2022/10/26 00:15:49;;;;;;;986.22;920.97;;;;;;;11.52;75.12;101349.31;701165;28;22386;-64
2022/10/26 00:16:13;;;;;;;966.97;902.42;;;;;;;11.51;75.25;101353.84;701348;28;22365;-63
2022/10/26 00:16:34;;;;;;;987.90;922.58;;;;;;;11.52;75.50;101355.53;698091;28;115079;-63
2022/10/26 00:16:55;;;;;;;979.03;913.95;;;;;;;11.53;75.53;101357.22;700885;28;22434;-63
2022/10/26 00:17:16;;;;;;;969.40;904.65;;;;;;;11.52;75.32;101354.72;701148;28;23461;-63
2022/10/26 00:17:39;;;;;;;984.95;919.80;;;;;;;11.50;75.26;101346.75;701212;28;22435;-64
2022/10/26 00:18:00;;;;;;;970.63;906.05;;;;;;;11.53;75.44;101351.81;700549;28;47346;-63
2022/10/26 00:18:21;;;;;;;985.17;920.15;;;;;;;11.54;75.35;101352.66;701254;28;22404;-63
2022/10/26 00:18:42;;;;;;;992.17;926.78;;;;;;;11.53;75.04;101354.50;700015;28;45294;-63
2022/10/26 00:19:04;;;;;;;985.75;920.55;;;;;;;11.52;75.26;101352.84;701274;28;22387;-63
2022/10/26 00:19:25;;;;;;;977.78;912.88;;;;;;;11.52;75.01;101355.53;700404;28;44196;-63
2022/10/26 00:19:46;;;;;;;948.85;884.83;;;;;;;11.53;75.04;101357.22;701215;28;22412;-63
2022/10/26 00:20:08;;;;;;;958.05;893.72;;;;;;;11.52;75.16;101358.25;701248;28;22454;-63
2022/10/26 00:20:31;;;;;;;986.78;921.58;;;;;;;11.53;75.35;101357.22;700595;28;46256;-63
2022/10/26 00:20:53;;;;;;;980.60;915.58;;;;;;;11.49;75.08;101349.63;699677;28;67481;-63
2022/10/26 00:21:14;;;;;;;958.13;893.75;;;;;;;11.48;75.17;101347.94;700322;28;44383;-63
2022/10/26 00:21:36;;;;;;;975.75;910.85;;;;;;;11.50;74.65;101354.88;701280;28;23463;-63
2022/10/26 00:21:58;;;;;;;970.92;906.22;;;;;;;11.50;75.03;101351.31;700438;28;46630;-63
2022/10/26 00:22:19;;;;;;;970.67;906.08;;;;;;;11.48;74.86;101356.03;700527;28;45240;-63
2022/10/26 00:22:41;;;;;;;949.93;886.03;;;;;;;11.49;75.00;101355.88;701264;28;22409;-62
2022/10/26 00:23:02;;;;;;;956.30;892.10;;;;;;;11.42;74.74;101340.50;700403;28;46301;-63
2022/10/26 00:23:24;;;;;;;952.40;888.38;;;;;;;11.49;74.82;101350.47;701086;28;23409;-63
2022/10/26 00:23:46;;;;;;;963.35;898.90;;;;;;;11.49;74.92;101358.59;700023;28;46332;-63
2022/10/26 00:24:07;;;;;;;960.47;896.10;;;;;;;11.50;74.63;101357.59;700420;28;46226;-63
2022/10/26 00:24:28;;;;;;;950.95;886.92;;;;;;;11.49;74.25;101355.88;700517;28;44357;-63
2022/10/26 00:24:50;;;;;;;955.80;891.63;;;;;;;11.48;74.15;101348.78;701270;28;21519;-63
2022/10/26 00:25:11;;;;;;;967.65;903.03;;;;;;;11.47;73.95;101357.91;701352;28;21405;-63
2022/10/26 00:25:33;;;;;;;978.63;913.65;;;;;;;11.48;74.12;101361.47;701472;28;21540;-63
2022/10/26 00:25:54;;;;;;;968.55;904.05;;;;;;;11.46;73.56;101361.63;700414;28;46306;-63
2022/10/26 00:26:15;;;;;;;987.83;922.72;;;;;;;11.45;73.67;101353.69;700539;28;44391;-63
2022/10/26 00:26:41;;;;;;;992.17;926.92;;;;;;;11.45;73.86;101359.09;699867;28;60294;-63
2022/10/26 00:27:04;;;;;;;982.58;917.30;;;;;;;11.44;73.43;101360.09;700778;28;22390;-63
2022/10/26 00:27:25;;;;;;;969.50;904.72;;;;;;;11.42;73.56;101365.66;700024;28;46412;-63
2022/10/26 00:27:46;;;;;;;975.50;910.58;;;;;;;11.41;73.53;101364.00;700987;28;21554;-63
2022/10/26 00:28:07;;;;;;;977.10;912.13;;;;;;;11.41;73.46;101358.59;697648;28;22474;-63
2022/10/26 00:28:28;;;;;;;969.90;905.17;;;;;;;11.36;73.43;101358.22;697799;28;22320;-63
2022/10/26 00:28:53;;;;;;;982.63;917.53;;;;;;;11.37;73.15;101365.31;698210;28;24372;-62
2022/10/26 00:29:14;;;;;;;967.72;903.15;;;;;;;11.35;73.33;101367.38;696892;28;87119;-63
2022/10/26 00:29:35;;;;;;;959.45;895.13;;;;;;;11.35;73.23;101368.19;701022;28;22380;-63
2022/10/26 00:29:56;;;;;;;949.80;885.72;;;;;;;11.34;73.20;101368.38;700416;28;46296;-63
2022/10/26 00:30:18;;;;;;;955.95;891.80;;;;;;;11.33;73.25;101362.13;701235;28;23365;-63
2022/10/26 00:30:39;;;;;;;954.38;890.17;;;;;;;11.32;72.78;101367.69;700450;28;46313;-62
2022/10/26 00:31:01;;;;;;;967.10;902.50;;;;;;;11.29;73.36;101368.03;701288;28;23251;-63
2022/10/26 00:31:23;;;;;;;959.95;895.60;;;;;;;11.29;73.09;101365.31;700445;28;46314;-63
2022/10/26 00:31:45;;;;;;;959.67;895.38;;;;;;;11.29;73.24;101370.72;700439;28;44374;-63
2022/10/26 00:32:06;;;;;;;953.38;889.22;;;;;;;11.30;73.25;101361.59;700522;28;46384;-63
2022/10/26 00:32:27;;;;;;;947.65;883.72;;;;;;;11.30;73.05;101367.00;701299;28;22390;-63
2022/10/26 00:32:48;;;;;;;971.42;906.70;;;;;;;11.30;73.35;101375.09;701314;28;21256;-63
2022/10/26 00:33:12;;;;;;;987.45;922.20;;;;;;;11.29;73.27;101373.44;701373;28;21510;-63
2022/10/26 00:33:34;;;;;;;1002.53;936.70;;;;;;;11.29;72.86;101376.13;698455;28;92226;-63
2022/10/26 00:33:56;;;;;;;967.30;902.70;;;;;;;11.28;73.34;101369.88;700514;28;44361;-63
2022/10/26 00:34:18;;;;;;;969.20;904.67;;;;;;;11.29;72.97;101370.72;700385;28;46350;-63
2022/10/26 00:34:39;;;;;;;975.67;910.85;;;;;;;11.28;73.21;101367.16;700397;28;44382;-63
2022/10/26 00:35:00;;;;;;;975.03;910.30;;;;;;;11.29;73.16;101370.72;701320;28;22377;-63
2022/10/26 00:35:21;;;;;;;965.00;900.65;;;;;;;11.29;73.01;101373.44;698499;28;23445;-63
2022/10/26 00:35:43;;;;;;;971.30;906.60;;;;;;;11.28;73.06;101371.72;698478;28;22399;-63
2022/10/26 00:36:05;;;;;;;957.13;892.92;;;;;;;11.27;73.07;101376.31;697718;28;46355;-63
2022/10/26 00:36:27;;;;;;;956.05;891.75;;;;;;;11.27;73.41;101379.00;697278;28;47397;-63
2022/10/26 00:36:48;;;;;;;955.75;891.58;;;;;;;11.28;72.95;101379.84;697652;28;44246;-63
2022/10/26 00:37:10;;;;;;;952.50;888.08;;;;;;;11.27;72.86;101376.31;697404;28;21500;-63
2022/10/26 00:37:31;;;;;;;948.25;884.22;;;;;;;11.28;73.07;101377.13;697463;28;46383;-63
2022/10/26 00:37:53;;;;;;;960.10;895.85;;;;;;;11.26;72.78;101373.78;699484;28;21563;-63
2022/10/26 00:38:14;;;;;;;960.95;896.65;;;;;;;11.26;73.19;101385.41;700144;28;46982;-63
2022/10/26 00:38:38;;;;;;;956.97;892.60;;;;;;;11.25;72.68;101380.19;699393;28;46303;-63
2022/10/26 00:38:59;;;;;;;965.00;900.50;;;;;;;11.25;73.23;101378.31;697407;28;69470;-63
2022/10/26 00:39:20;;;;;;;944.25;880.47;;;;;;;11.25;73.00;101372.06;701331;28;23413;-63
2022/10/26 00:39:41;;;;;;;950.33;886.25;;;;;;;11.26;73.10;101382.72;700289;28;46248;-63
2022/10/26 00:40:03;;;;;;;951.17;887.15;;;;;;;11.29;73.24;101384.25;700917;28;22341;-63
2022/10/26 00:40:27;;;;;;;964.80;900.35;;;;;;;11.30;73.26;101378.69;700512;28;46571;-63
2022/10/26 00:40:49;;;;;;;974.13;909.33;;;;;;;11.28;72.88;101372.56;698283;28;69872;-63
2022/10/26 00:41:13;;;;;;;972.65;907.90;;;;;;;11.29;73.09;101376.97;699044;28;69435;-63
2022/10/26 00:41:34;;;;;;;961.97;897.55;;;;;;;11.31;72.93;101379.50;698870;28;90704;-62
2022/10/26 00:41:55;;;;;;;950.38;886.35;;;;;;;11.29;72.81;101370.72;701120;28;22366;-63
2022/10/26 00:42:18;;;;;;;954.75;890.67;;;;;;;11.31;72.79;101368.69;701063;28;22405;-63
2022/10/26 00:42:40;;;;;;;958.90;894.72;;;;;;;11.33;73.07;101377.47;699128;28;67474;-63
2022/10/26 00:43:02;;;;;;;966.50;902.10;;;;;;;11.36;72.59;101374.44;698594;28;45231;-63
2022/10/26 00:43:36;;;;;;;949.92;886.22;;;;;;;11.35;72.47;101375.47;701029;28;22370;-63
2022/10/26 00:43:59;;;;;;;949.45;885.50;;;;;;;11.38;72.65;101377.84;696220;28;157453;-63
2022/10/26 00:45:00;;;;;;;961.00;896.70;;;;;;;11.38;72.46;101380.56;699544;28;69455;-63
2022/10/26 00:45:24;;;;;;;973.67;908.83;;;;;;;11.41;72.42;101379.34;694284;28;138335;-63
2022/10/26 00:45:46;;;;;;;968.70;904.03;;;;;;;11.40;72.41;101377.69;696811;28;92229;-63
2022/10/26 00:46:11;;;;;;;990.42;925.10;;;;;;;11.42;72.41;101386.47;700449;28;47416;-63
2022/10/26 00:46:34;;;;;;;960.13;895.83;;;;;;;11.38;71.97;101376.97;698086;28;115258;-62
2022/10/26 00:46:56;;;;;;;959.65;895.17;;;;;;;11.41;71.99;101385.63;695928;28;91888;-63
2022/10/26 00:47:20;;;;;;;947.70;883.53;;;;;;;11.40;72.02;101381.22;701131;28;22280;-63
2022/10/26 00:47:44;;;;;;;960.35;896.05;;;;;;;11.39;71.87;101381.38;698468;28;90728;-63
2022/10/26 00:48:07;;;;;;;965.22;900.72;;;;;;;11.38;71.62;101379.69;697620;28;90726;-63
2022/10/26 00:48:30;;;;;;;955.20;891.08;;;;;;;11.36;71.37;101383.44;699682;28;69564;-63
2022/10/26 00:48:55;;;;;;;942.33;878.55;;;;;;;11.35;71.35;101389.00;696023;28;112060;-63
2022/10/26 00:49:19;;;;;;;970.83;906.08;;;;;;;11.33;71.78;101389.16;696017;28;92328;-63
2022/10/26 00:49:40;;;;;;;965.60;901.10;;;;;;;11.31;71.69;101380.34;696102;28;92281;-63
2022/10/26 00:50:06;;;;;;;952.85;888.78;;;;;;;11.29;71.70;101384.25;700430;28;44380;-63
2022/10/26 00:50:29;;;;;;;972.70;908.00;;;;;;;11.26;71.77;101387.28;698024;28;115686;-63
2022/10/26 00:50:52;;;;;;;981.65;916.63;;;;;;;11.25;71.28;101386.41;698622;28;92032;-63
2022/10/26 00:51:18;;;;;;;971.90;907.20;;;;;;;11.20;71.29;101372.56;699562;28;69283;-63
2022/10/26 00:51:41;;;;;;;966.40;901.88;;;;;;;11.22;71.61;101384.03;697141;28;138795;-63
2022/10/26 00:52:03;;;;;;;966.17;901.63;;;;;;;11.21;71.50;101385.09;699230;28;69184;-63
2022/10/26 00:52:25;;;;;;;956.05;891.85;;;;;;;11.20;71.98;101379.84;700241;28;46248;-63
2022/10/26 00:52:47;;;;;;;949.85;885.90;;;;;;;11.18;72.00;101383.53;700342;28;46320;-63
2022/10/26 00:53:10;;;;;;;960.88;896.53;;;;;;;11.18;71.90;101378.13;700388;28;46606;-63
2022/10/26 00:53:31;;;;;;;960.40;896.08;;;;;;;11.18;71.97;101383.53;699147;28;69226;-63
2022/10/26 00:53:55;;;;;;;971.33;906.63;;;;;;;11.19;71.97;101379.00;701207;28;22180;-63
2022/10/26 00:54:17;;;;;;;949.63;885.65;;;;;;;11.18;71.95;101378.13;698857;28;90704;-63
2022/10/26 00:54:39;;;;;;;967.80;903.20;;;;;;;11.18;72.46;101383.53;700403;28;45402;-63
2022/10/26 00:55:00;;;;;;;965.75;901.25;;;;;;;11.21;72.22;101378.81;700441;28;46439;-63
2022/10/26 00:55:24;;;;;;;957.13;892.90;;;;;;;11.19;72.32;101376.28;701096;28;24314;-63
2022/10/26 00:55:48;;;;;;;956.70;892.33;;;;;;;11.17;72.30;101371.06;698707;28;92052;-63
2022/10/26 00:56:09;;;;;;;963.63;899.15;;;;;;;11.18;72.00;101378.13;698794;28;91706;-63
2022/10/26 00:56:31;;;;;;;972.00;907.22;;;;;;;11.15;72.02;101372.22;701035;28;19346;-63
2022/10/26 00:56:54;;;;;;;959.92;895.58;;;;;;;11.19;72.05;101376.28;699818;28;45309;-64
2022/10/26 00:57:16;;;;;;;955.20;890.75;;;;;;;11.17;71.88;101372.91;698190;28;90869;-63
2022/10/26 00:57:38;;;;;;;964.97;900.38;;;;;;;11.17;72.30;101376.47;700974;28;22372;-63
2022/10/26 00:58:00;;;;;;;964.85;900.33;;;;;;;11.17;71.83;101367.47;700347;28;46430;-63
2022/10/26 00:58:23;;;;;;;953.22;889.17;;;;;;;11.16;72.16;101371.22;700165;28;45218;-63
2022/10/26 00:58:44;;;;;;;951.38;887.47;;;;;;;11.15;72.15;101369.53;699150;28;69483;-62
2022/10/26 00:59:07;;;;;;;961.03;896.80;;;;;;;11.16;71.84;101371.22;701260;28;23467;-63
2022/10/26 00:59:28;;;;;;;953.58;889.47;;;;;;;11.15;71.97;101370.34;699414;28;69413;-63
2022/10/26 00:59:52;;;;;;;951.35;887.28;;;;;;;11.15;71.81;101366.81;700372;28;46352;-63
2022/10/26 01:00:14;;;;;;;958.78;894.55;;;;;;;11.15;71.56;101369.53;699770;28;65875;-62
2022/10/26 01:00:35;;;;;;;976.15;911.25;;;;;;;11.14;71.88;101373.22;700237;28;45252;-63
2022/10/26 01:00:56;;;;;;;978.55;913.53;;;;;;;11.13;71.87;101364.28;700541;28;44373;-62
2022/10/26 01:01:18;;;;;;;977.17;912.28;;;;;;;11.14;71.50;101374.09;701148;28;22409;-63
2022/10/26 01:01:42;;;;;;;962.92;898.40;;;;;;;11.13;71.81;101369.69;700392;28;44023;-63
2022/10/26 01:02:03;;;;;;;962.50;898.08;;;;;;;11.13;71.77;101363.44;698769;28;93006;-63
2022/10/26 01:02:24;;;;;;;953.85;889.78;;;;;;;11.12;71.23;101367.16;701211;28;22401;-63
2022/10/26 01:02:47;;;;;;;963.95;899.47;;;;;;;11.11;71.13;101370.84;701040;28;22414;-63
2022/10/26 01:03:10;;;;;;;952.72;888.63;;;;;;;11.11;71.45;101371.72;699667;28;69869;-63
2022/10/26 01:03:32;;;;;;;951.72;887.63;;;;;;;11.11;71.32;101368.16;698922;28;69436;-63
2022/10/26 01:03:53;;;;;;;952.50;888.38;;;;;;;11.10;71.55;101372.72;700423;28;44033;-63
2022/10/26 01:04:15;;;;;;;928.95;865.78;;;;;;;11.09;71.28;101371.00;701006;28;22392;-63
2022/10/26 01:04:36;;;;;;;929.80;866.58;;;;;;;11.10;71.20;101372.72;701242;28;22373;-63
2022/10/26 01:04:58;;;;;;;944.13;880.38;;;;;;;11.08;71.49;101363.94;700480;28;45215;-63
2022/10/26 01:05:19;;;;;;;949.63;885.75;;;;;;;11.08;71.35;101365.78;700413;28;46428;-62
2022/10/26 01:05:43;;;;;;;931.38;868.30;;;;;;;11.03;71.01;101365.44;701170;28;21544;-63
2022/10/26 01:06:04;;;;;;;926.22;863.30;;;;;;;11.04;70.93;101365.25;699634;28;69654;-63
2022/10/26 01:06:27;;;;;;;926.08;863.08;;;;;;;11.02;71.19;101367.28;700299;28;44389;-63
2022/10/26 01:06:49;;;;;;;949.42;885.58;;;;;;;11.00;71.05;101366.59;699533;28;69458;-62
2022/10/26 01:07:10;;;;;;;933.90;870.38;;;;;;;10.99;71.11;101365.75;699802;28;46199;-63
2022/10/26 01:07:32;;;;;;;920.53;857.65;;;;;;;10.97;71.01;101359.69;701149;28;23477;-63
2022/10/26 01:07:53;;;;;;;918.35;855.55;;;;;;;10.97;70.74;101366.91;700306;28;44149;-63
2022/10/26 01:08:16;;;;;;;948.00;884.10;;;;;;;10.97;70.99;101366.91;701124;28;23269;-63
2022/10/26 01:08:37;;;;;;;955.47;891.30;;;;;;;10.96;71.19;101362.53;699041;28;67647;-63
2022/10/26 01:09:00;;;;;;;946.53;882.75;;;;;;;10.97;71.02;101366.91;701246;28;23470;-63
2022/10/26 01:09:21;;;;;;;958.40;894.17;;;;;;;10.94;71.08;101360.00;699629;28;69638;-63
2022/10/26 01:09:42;;;;;;;927.67;864.45;;;;;;;10.95;71.29;101360.84;700260;28;46300;-63
2022/10/26 01:10:07;;;;;;;941.25;877.65;;;;;;;10.94;71.28;101369.94;701255;28;23623;-63
2022/10/26 01:10:28;;;;;;;937.08;873.60;;;;;;;10.94;71.01;101360.00;698500;28;90806;-63
2022/10/26 01:10:49;;;;;;;934.80;871.40;;;;;;;10.93;71.54;101363.72;701084;28;22438;-62
2022/10/26 01:11:11;;;;;;;946.63;882.75;;;;;;;10.93;71.27;101374.53;700258;28;46308;-63
2022/10/26 01:11:33;;;;;;;973.60;908.80;;;;;;;10.93;71.25;101368.28;700317;28;46151;-63
2022/10/26 01:11:54;;;;;;;983.08;917.80;;;;;;;10.93;71.44;101371.81;700243;28;46340;-63
2022/10/26 01:12:15;;;;;;;975.97;911.05;;;;;;;10.93;71.29;101373.69;701201;28;23440;-62
2022/10/26 01:12:37;;;;;;;949.72;885.78;;;;;;;10.89;71.08;101373.13;701116;28;22426;-63
2022/10/26 01:12:59;;;;;;;970.22;905.70;;;;;;;10.92;71.19;101380.09;700326;28;21611;-63
2022/10/26 01:13:20;;;;;;;954.30;890.20;;;;;;;10.91;70.95;101371.16;700193;28;46311;-63
2022/10/26 01:13:42;;;;;;;939.80;876.22;;;;;;;10.91;71.25;101368.44;697384;28;23526;-63
2022/10/26 01:14:05;;;;;;;921.80;858.70;;;;;;;10.91;71.30;101375.69;697256;28;46422;-63
2022/10/26 01:14:27;;;;;;;943.53;879.60;;;;;;;10.91;71.20;101376.56;696569;28;67432;-63
2022/10/26 01:14:49;;;;;;;952.47;888.35;;;;;;;10.90;71.21;101372.16;697399;28;45264;-63
2022/10/26 01:15:11;;;;;;;960.55;896.20;;;;;;;10.90;71.55;101376.72;699525;28;46359;-63
2022/10/26 01:15:38;;;;;;;946.35;882.45;;;;;;;10.89;71.38;101364.19;700469;28;46307;-63
2022/10/26 01:16:08;;;;;;;938.50;874.85;;;;;;;10.89;71.55;101370.44;697117;28;137577;-63
2022/10/26 01:16:43;;;;;;;951.40;887.35;;;;;;;10.89;71.49;101373.13;697196;28;137611;-63
2022/10/26 01:17:13;;;;;;;946.63;882.53;;;;;;;10.88;71.55;101365.19;693855;28;135699;-62
2022/10/26 01:17:43;;;;;;;944.17;880.33;;;;;;;10.89;71.34;101372.31;694397;28;136411;-63
2022/10/26 01:18:10;;;;;;;934.25;870.72;;;;;;;10.88;71.09;101368.75;694148;28;138429;-63
2022/10/26 01:18:37;;;;;;;932.80;869.22;;;;;;;10.89;71.35;101370.44;695701;28;138272;-63
2022/10/26 01:19:09;;;;;;;919.85;856.88;;;;;;;10.89;71.33;101369.59;696996;28;138040;-63
2022/10/26 01:19:52;;;;;;;938.88;875.28;;;;;;;10.88;71.17;101370.59;696973;28;136019;-63
2022/10/26 01:20:38;;;;;;;932.67;869.22;;;;;;;10.88;71.06;101368.75;695949;28;159184;-63
2022/10/26 01:21:13;;;;;;;942.17;878.40;;;;;;;10.87;70.79;101371.63;697207;28;137569;-63
2022/10/26 01:21:41;;;;;;;937.03;873.30;;;;;;;10.86;70.91;101368.09;698260;28;97899;-63
2022/10/26 01:22:06;;;;;;;942.63;878.85;;;;;;;10.84;70.96;101371.97;697140;28;137921;-63
2022/10/26 01:22:33;;;;;;;924.88;861.70;;;;;;;10.84;71.01;101369.25;698019;28;113602;-63
2022/10/26 01:22:57;;;;;;;925.42;862.17;;;;;;;10.84;70.64;101371.97;697194;28;136530;-63
2022/10/26 01:23:22;;;;;;;937.22;873.67;;;;;;;10.82;70.96;101367.56;697958;28;114726;-63
2022/10/26 01:23:55;;;;;;;927.15;863.90;;;;;;;10.81;70.68;101373.97;697481;28;113613;-63
2022/10/26 01:24:39;;;;;;;928.25;864.88;;;;;;;10.80;70.92;101376.84;696914;28;137386;-62
2022/10/26 01:25:03;;;;;;;928.42;865.10;;;;;;;10.80;71.25;101374.16;697116;28;135985;-63
2022/10/26 01:25:40;;;;;;;931.05;867.75;;;;;;;10.81;70.86;101365.88;698813;28;92033;-62
2022/10/26 01:26:13;;;;;;;918.92;855.90;;;;;;;10.80;71.00;101372.28;697164;28;137946;-63
2022/10/26 01:26:51;;;;;;;939.63;875.97;;;;;;;10.77;70.64;101360.97;697000;28;135637;-63
2022/10/26 01:27:26;;;;;;;937.17;873.58;;;;;;;10.79;70.52;101369.75;696009;28;160599;-64
2022/10/26 01:27:48;;;;;;;940.80;877.08;;;;;;;10.78;70.46;101362.63;697179;28;135650;-63
2022/10/26 01:28:24;;;;;;;934.38;870.83;;;;;;;10.74;70.84;101356.72;700151;28;46485;-63
2022/10/26 01:28:58;;;;;;;928.97;865.65;;;;;;;10.77;70.76;101367.19;696694;28;137712;-62
2022/10/26 01:29:47;;;;;;;929.95;866.63;;;;;;;10.77;70.77;101367.19;697169;28;137593;-63
2022/10/26 01:30:25;;;;;;;918.17;855.25;;;;;;;10.77;70.58;101361.81;696998;28;137513;-63
2022/10/26 01:30:47;;;;;;;926.75;863.53;;;;;;;10.75;70.56;101361.13;696974;28;138446;-63
2022/10/26 01:31:10;;;;;;;926.20;863.00;;;;;;;10.74;70.88;101367.53;699971;28;46405;-63
2022/10/26 01:31:36;;;;;;;938.72;875.13;;;;;;;10.74;70.96;101359.41;698514;28;92480;-62
2022/10/26 01:32:01;;;;;;;927.25;863.95;;;;;;;10.74;70.79;101362.13;696989;28;136383;-61
2022/10/26 01:32:26;;;;;;;933.95;870.53;;;;;;;10.75;70.72;101365.66;697107;28;115141;-63
2022/10/26 01:32:56;;;;;;;935.20;871.63;;;;;;;10.75;70.95;101361.13;697568;28;115127;-62
2022/10/26 01:33:30;;;;;;;939.10;875.53;;;;;;;10.75;71.01;101362.97;697970;28;110762;-63
2022/10/26 01:33:56;;;;;;;939.70;876.08;;;;;;;10.75;71.06;101357.56;693450;28;156317;-63
2022/10/26 01:34:21;;;;;;;942.28;878.55;;;;;;;10.75;71.06;101354.84;694249;28;138048;-63
2022/10/26 01:34:44;;;;;;;930.75;867.33;;;;;;;10.75;70.90;101360.25;695005;28;114841;-62
2022/10/26 01:35:08;;;;;;;935.20;871.65;;;;;;;10.74;71.01;101354.03;696746;28;69400;-62
2022/10/26 01:35:32;;;;;;;940.90;877.20;;;;;;;10.73;71.27;101359.59;695954;28;92269;-63
2022/10/26 01:36:02;;;;;;;952.13;888.00;;;;;;;10.74;71.22;101355.88;695986;28;90324;-63
2022/10/26 01:36:33;;;;;;;954.40;890.17;;;;;;;10.73;71.15;101352.31;696826;28;60527;-63
2022/10/26 01:36:57;;;;;;;947.08;883.00;;;;;;;10.72;70.90;101356.06;694601;28;113570;-63
2022/10/26 01:37:21;;;;;;;963.92;899.20;;;;;;;10.71;71.11;101348.09;696548;28;69240;-63
2022/10/26 01:37:47;;;;;;;941.72;877.95;;;;;;;10.71;70.77;101351.66;695897;28;92041;-63
2022/10/26 01:38:10;;;;;;;932.58;869.22;;;;;;;10.71;70.92;101348.94;694308;28;138481;-63
2022/10/26 01:38:34;;;;;;;950.15;886.13;;;;;;;10.70;70.97;101354.50;696678;28;69316;-63
2022/10/26 01:39:00;;;;;;;947.60;883.53;;;;;;;10.70;70.86;101349.94;698610;28;92056;-63
2022/10/26 01:39:27;;;;;;;950.17;886.20;;;;;;;10.67;71.10;101344.03;697300;28;137671;-63
2022/10/26 01:39:52;;;;;;;932.38;868.97;;;;;;;10.68;70.91;101353.84;698775;28;138023;-63
2022/10/26 01:40:18;;;;;;;944.65;880.95;;;;;;;10.64;70.98;101348.75;698003;28;113468;-62
2022/10/26 01:40:44;;;;;;;950.20;886.25;;;;;;;10.68;70.70;101348.44;697061;28;137935;-63
2022/10/26 01:41:10;;;;;;;951.13;887.10;;;;;;;10.66;70.78;101354.00;696839;28;138665;-62
2022/10/26 01:41:34;;;;;;;945.25;881.38;;;;;;;10.66;70.88;101348.59;697129;28;136550;-63
2022/10/26 01:41:58;;;;;;;945.60;881.53;;;;;;;10.66;71.16;101350.44;698485;28;92265;-63
2022/10/26 01:42:20;;;;;;;935.38;871.83;;;;;;;10.62;71.10;101339.09;698718;28;90454;-63
2022/10/26 01:42:44;;;;;;;937.83;874.17;;;;;;;10.64;71.01;101347.88;699219;28;44361;-63
2022/10/26 01:43:07;;;;;;;935.90;872.30;;;;;;;10.65;71.20;101355.00;698604;28;92280;-63
2022/10/26 01:43:32;;;;;;;939.63;875.90;;;;;;;10.61;70.83;101340.97;699109;28;69451;-63
2022/10/26 01:43:55;;;;;;;933.25;869.78;;;;;;;10.64;70.72;101347.88;696886;28;138733;-63
2022/10/26 01:44:21;;;;;;;931.30;867.90;;;;;;;10.62;70.99;101339.94;699357;28;69470;-63
2022/10/26 01:44:46;;;;;;;945.70;881.78;;;;;;;10.62;70.95;101348.06;697094;28;138012;-63
2022/10/26 01:45:09;;;;;;;964.33;899.80;;;;;;;10.59;70.85;101339.44;698403;28;92237;-63
2022/10/26 01:45:32;;;;;;;950.22;886.17;;;;;;;10.61;71.03;101349.06;699613;28;67492;-62
2022/10/26 01:45:55;;;;;;;949.42;885.42;;;;;;;10.60;70.77;101346.53;698567;28;90153;-63
2022/10/26 01:46:17;;;;;;;958.47;894.05;;;;;;;10.61;70.70;101353.63;700355;28;46586;-63